Time;durP1;ratioP1;P1;durP2;ratioP2;P2;SDS_P1;SDS_P2;PMS_P1;PMS_P2;Temp;Humidity;BMP_temperature;BMP_pressure;BME280_temperature;BME280_humidity;BME280_pressure;Samples;Min_cycle;Max_cycle;Signal;HPM_P1;HPM_P2
2022/02/02 00:03:10;;;;;;;8.32;2.13;;;8.60;73.50;;;;;;20889577;28;20458;-80
2022/02/02 00:13:27;;;;;;;10.50;1.92;;;8.60;73.40;;;;;;20905361;28;20036;-79
2022/02/02 00:23:35;;;;;;;6.72;1.75;;;8.60;73.40;;;;;;20889484;28;20410;-80
2022/02/02 00:33:45;;;;;;;8.02;2.38;;;8.60;73.40;;;;;;20921632;28;20033;-78
2022/02/02 00:43:48;;;;;;;12.15;2.97;;;8.60;73.40;;;;;;20904247;28;20395;-81
2022/02/02 00:53:48;;;;;;;9.98;1.90;;;8.60;73.40;;;;;;20918512;28;20040;-80
2022/02/02 01:03:49;;;;;;;6.82;1.73;;;8.50;73.30;;;;;;20884205;28;20124;-79
2022/02/02 01:14:59;;;;;;;10.30;1.67;;;8.50;73.20;;;;;;20849444;28;20120;-78
2022/02/02 01:34:43;;;;;;;10.70;1.80;;;8.60;73.10;;;;;;20849521;28;20069;-79
2022/02/02 01:44:52;;;;;;;6.75;1.33;;;8.50;73.00;;;;;;20850046;28;20083;-78
2022/02/02 01:54:58;;;;;;;7.10;1.95;;;8.60;73.00;;;;;;20801591;28;20564;-79
2022/02/02 02:27:45;;;;;;;15.00;2.08;;;8.50;72.60;;;;;;20856507;28;20017;-79
2022/02/02 02:38:23;;;;;;;8.52;1.67;;;8.50;72.60;;;;;;20878818;28;20045;-78
2022/02/02 02:58:48;;;;;;;5.80;1.73;;;8.50;72.40;;;;;;20896541;28;20459;-80
2022/02/02 04:00:40;;;;;;;10.77;2.28;;;8.50;72.00;;;;;;20893073;28;20033;-80
2022/02/02 04:10:41;;;;;;;10.38;2.08;;;8.50;72.00;;;;;;20892829;28;20091;-80
2022/02/02 04:51:53;;;;;;;10.90;2.13;;;8.50;71.60;;;;;;20870785;28;20088;-80
2022/02/02 05:43:19;;;;;;;11.27;2.55;;;8.90;70.40;;;;;;20819771;28;20530;-81
2022/02/02 05:53:14;;;;;;;10.35;1.67;;;9.30;69.60;;;;;;20849993;28;20507;-81
2022/02/02 06:03:16;;;;;;;11.82;2.25;;;9.40;68.70;;;;;;20888073;28;20114;-81
2022/02/02 06:13:18;;;;;;;16.00;2.97;;;9.50;68.00;;;;;;20919456;28;20033;-81
2022/02/02 06:23:27;;;;;;;13.13;2.95;;;9.60;67.70;;;;;;20877456;28;20480;-75
2022/02/02 06:33:35;;;;;;;18.73;3.40;;;9.50;67.70;;;;;;20871806;28;20098;-84
2022/02/02 06:43:39;;;;;;;9.65;2.58;;;9.30;68.10;;;;;;20872808;28;20118;-82
2022/02/02 06:53:48;;;;;;;19.65;4.05;;;9.20;68.50;;;;;;20903629;28;20045;-83
2022/02/02 07:04:20;;;;;;;12.18;2.33;;;9.00;68.90;;;;;;20906014;28;20045;-82
2022/02/02 07:35:15;;;;;;;6.95;1.83;;;8.80;70.00;;;;;;20879261;28;20029;-90
2022/02/02 07:45:21;;;;;;;6.32;1.45;;;8.70;70.10;;;;;;20864899;28;20049;-88
2022/02/02 07:55:25;;;;;;;10.35;2.17;;;8.60;70.30;;;;;;20853051;28;20071;-85
2022/02/02 08:05:28;;;;;;;10.27;2.10;;;8.60;70.40;;;;;;20853893;28;20040;-87
2022/02/02 08:15:33;;;;;;;9.30;2.08;;;8.60;70.60;;;;;;20937044;28;20060;-86
2022/02/02 08:25:35;;;;;;;8.65;2.10;;;8.60;70.70;;;;;;20938389;28;20037;-83
2022/02/02 08:35:47;;;;;;;6.47;1.80;;;8.60;70.80;;;;;;20918082;28;20041;-86
2022/02/02 08:45:48;;;;;;;11.13;1.42;;;8.60;70.80;;;;;;20827571;28;20132;-84
2022/02/02 08:56:02;;;;;;;7.85;1.98;;;8.50;70.70;;;;;;20856653;28;20369;-82
2022/02/02 09:06:04;;;;;;;11.13;1.70;;;8.50;70.70;;;;;;20866062;28;20033;-84
2022/02/02 09:36:45;;;;;;;6.90;1.33;;;8.50;70.70;;;;;;20917752;28;20068;-83
2022/02/02 09:47:01;;;;;;;5.25;1.42;;;8.50;70.60;;;;;;20839315;28;20029;-86
2022/02/02 10:17:47;;;;;;;8.30;1.45;;;8.50;70.40;;;;;;20864718;28;20041;-86
2022/02/02 10:27:49;;;;;;;4.68;1.20;;;8.50;70.40;;;;;;20872011;28;20032;-86
2022/02/02 10:37:57;;;;;;;5.75;1.25;;;8.50;70.30;;;;;;20881636;28;20479;-86
2022/02/02 10:48:24;;;;;;;8.32;1.60;;;8.50;70.20;;;;;;20939306;28;20054;-89
2022/02/02 10:59:02;;;;;;;5.03;1.30;;;8.50;70.10;;;;;;20910050;28;20041;-88
2022/02/02 11:08:55;;;;;;;8.07;1.52;;;8.50;70.00;;;;;;20906102;28;20029;-79
2022/02/02 11:19:00;;;;;;;5.47;1.48;;;8.50;69.90;;;;;;20857956;28;20032;-76
2022/02/02 11:29:02;;;;;;;3.28;1.00;;;8.60;69.60;;;;;;20878248;28;20033;-79
2022/02/02 11:39:07;;;;;;;8.15;1.10;;;8.80;69.20;;;;;;20871134;28;20365;-77
2022/02/02 11:49:14;;;;;;;4.20;0.95;;;9.00;68.60;;;;;;20910484;28;20116;-78
2022/02/02 11:59:51;;;;;;;7.50;2.35;;;9.20;67.90;;;;;;21237289;23;20107;-78
2022/02/02 12:09:58;;;;;;;4.28;1.15;;;9.30;67.50;;;;;;20828910;28;20391;-79
2022/02/02 12:20:44;;;;;;;4.03;1.73;;;9.20;67.40;;;;;;20783829;28;20108;-78
2022/02/02 13:01:24;;;;;;;3.90;1.08;;;8.90;68.10;;;;;;20721934;28;20041;-77
2022/02/02 13:11:33;;;;;;;4.55;0.90;;;8.80;68.20;;;;;;20725439;28;20033;-77
2022/02/02 13:21:43;;;;;;;3.15;0.82;;;8.80;68.40;;;;;;20742041;28;20068;-79
2022/02/02 13:32:23;;;;;;;6.03;0.80;;;8.70;68.60;;;;;;20727746;28;20072;-82
2022/02/02 13:42:44;;;;;;;2.28;0.82;;;8.70;68.80;;;;;;20848245;28;20066;-82
2022/02/02 13:52:53;;;;;;;1.80;0.70;;;8.70;68.90;;;;;;20863320;28;20456;-77
2022/02/02 14:33:59;;;;;;;6.13;0.90;;;8.70;69.20;;;;;;20836339;28;20032;-81
2022/02/02 14:54:44;;;;;;;2.90;0.57;;;8.60;69.30;;;;;;20739480;28;20400;-80
2022/02/02 15:35:36;;;;;;;2.03;0.80;;;8.60;69.80;;;;;;20813259;28;20037;-79
2022/02/02 16:06:05;;;;;;;8.43;0.52;;;8.80;69.40;;;;;;20830277;28;20033;-77
2022/02/02 16:36:50;;;;;;;1.55;0.55;;;9.40;67.60;;;;;;20772497;28;20435;-79
2022/02/02 16:46:53;;;;;;;3.92;0.70;;;9.40;67.00;;;;;;20807962;28;20487;-79
2022/02/02 17:29:16;;;;;;;7.47;1.13;;;9.00;67.60;;;;;;20847565;28;20040;-77
2022/02/02 17:38:50;;;;;;;2.95;0.98;;;8.90;67.90;;;;;;20813846;28;20033;-81
2022/02/02 18:20:31;;;;;;;3.80;1.00;;;8.70;68.50;;;;;;20839419;28;20060;-79
2022/02/02 18:30:37;;;;;;;2.35;0.95;;;8.70;69.30;;;;;;20817515;28;20169;-79
2022/02/02 19:01:36;;;;;;;4.90;1.13;;;8.60;68.80;;;;;;20887765;28;20124;-80
2022/02/02 20:03:58;;;;;;;2.60;1.13;;;8.60;69.20;;;;;;20818206;28;20037;-81
2022/02/02 20:14:00;;;;;;;3.08;1.42;;;8.60;69.20;;;;;;20824458;28;20045;-81
2022/02/02 20:24:04;;;;;;;5.95;1.55;;;8.60;69.30;;;;;;20772772;28;20030;-80
2022/02/02 20:34:05;;;;;;;4.45;1.25;;;8.60;69.30;;;;;;20792270;28;20124;-80
2022/02/02 20:44:16;;;;;;;2.67;1.02;;;8.60;69.30;;;;;;20801924;28;20033;-80
2022/02/02 21:04:50;;;;;;;7.50;1.40;;;8.50;69.20;;;;;;20839758;28;20045;-80
2022/02/02 21:14:59;;;;;;;2.03;1.10;;;8.60;69.30;;;;;;20759311;28;20037;-80
2022/02/02 21:25:30;;;;;;;7.80;1.40;;;8.60;69.30;;;;;;20786037;28;20073;-80
2022/02/02 21:35:34;;;;;;;4.68;1.60;;;8.60;69.30;;;;;;20795201;28;20041;-80
2022/02/02 21:45:37;;;;;;;3.30;1.85;;;8.60;69.30;;;;;;20745839;28;20030;-79
2022/02/02 21:55:39;;;;;;;3.17;1.10;;;8.60;69.30;;;;;;20739394;28;20057;-80
2022/02/02 22:05:40;;;;;;;4.90;1.55;;;8.60;69.30;;;;;;20706616;28;20427;-79
2022/02/02 22:15:51;;;;;;;4.78;1.42;;;8.60;69.30;;;;;;20736960;28;20132;-81
2022/02/02 22:25:52;;;;;;;4.15;1.40;;;8.60;69.30;;;;;;20722302;28;20129;-80
2022/02/02 22:35:54;;;;;;;5.88;1.70;;;8.60;69.30;;;;;;20737292;28;20045;-80
2022/02/02 22:45:58;;;;;;;3.00;0.90;;;8.60;69.30;;;;;;20704410;28;20476;-81
2022/02/02 22:55:59;;;;;;;7.05;1.17;;;8.60;69.30;;;;;;20719239;28;20297;-81
2022/02/02 23:06:04;;;;;;;2.78;1.33;;;8.50;69.20;;;;;;20733661;28;20030;-81
2022/02/02 23:16:11;;;;;;;3.70;1.25;;;8.50;69.30;;;;;;20700232;28;20108;-79
2022/02/02 23:26:13;;;;;;;3.08;1.27;;;8.60;69.30;;;;;;20699843;28;20026;-81
2022/02/02 23:36:13;;;;;;;6.28;1.55;;;8.50;69.20;;;;;;20713557;28;20377;-80
2022/02/02 23:46:18;;;;;;;2.38;1.10;;;8.50;69.30;;;;;;20696931;28;20034;-80
2022/02/02 23:56:35;;;;;;;7.80;1.30;;;8.60;69.30;;;;;;20696275;28;20034;-81
